createdAt,value
2019-01-12T00:01:13.070Z,3.12
2019-01-12T00:04:18.746Z,3.38
2019-01-12T00:07:24.400Z,3.33
2019-01-12T00:10:30.053Z,3.25
2019-01-12T00:13:35.724Z,3.46
2019-01-12T00:16:41.491Z,2.98
2019-01-12T00:19:47.086Z,3.49
2019-01-12T00:22:52.669Z,3.33
2019-01-12T00:25:58.300Z,3.51
2019-01-12T00:29:03.910Z,3.60
2019-01-12T00:32:09.537Z,3.70
2019-01-12T00:35:15.279Z,3.53
2019-01-12T00:38:21.171Z,3.56
2019-01-12T00:41:26.776Z,3.34
2019-01-12T00:44:32.419Z,3.47
2019-01-12T00:47:38.099Z,3.44
2019-01-12T00:50:43.762Z,3.32
2019-01-12T00:53:49.402Z,3.46
2019-01-12T00:56:55.210Z,2.98
2019-01-12T01:00:00.930Z,2.95
2019-01-12T01:03:07.780Z,3.31
2019-01-12T01:06:13.437Z,2.96
2019-01-12T01:09:19.065Z,3.24
2019-01-12T01:12:25.809Z,3.18
2019-01-12T01:15:31.501Z,3.16
2019-01-12T01:18:37.139Z,3.08
2019-01-12T01:21:42.807Z,2.97
2019-01-12T01:24:48.431Z,2.82
2019-01-12T01:27:54.115Z,3.20
2019-01-12T01:30:59.780Z,2.81
2019-01-12T01:34:05.527Z,3.01
2019-01-12T01:37:11.156Z,3.10
2019-01-12T01:40:18.675Z,3.10
2019-01-12T01:43:24.269Z,3.28
2019-01-12T01:46:29.879Z,3.15
2019-01-12T01:49:35.484Z,3.36
2019-01-12T01:52:41.125Z,3.19
2019-01-12T01:55:46.779Z,3.04
2019-01-12T01:58:52.424Z,3.07
2019-01-12T02:01:58.097Z,3.33
2019-01-12T02:05:04.117Z,3.44
2019-01-12T02:08:09.979Z,3.22
2019-01-12T02:11:15.615Z,3.14
2019-01-12T02:14:21.351Z,3.04
2019-01-12T02:17:27.050Z,3.21
2019-01-12T02:20:32.813Z,3.19
2019-01-12T02:23:38.451Z,3.34
2019-01-12T02:26:44.052Z,3.23
2019-01-12T02:29:49.675Z,3.22
2019-01-12T02:32:55.848Z,3.41
2019-01-12T02:36:01.489Z,3.26
2019-01-12T02:39:08.405Z,3.20
2019-01-12T02:42:14.077Z,3.15
2019-01-12T02:45:21.542Z,3.26
2019-01-12T02:48:28.173Z,3.04
2019-01-12T02:51:33.755Z,3.19
2019-01-12T02:54:39.410Z,3.29
2019-01-12T02:57:45.059Z,3.48
2019-01-12T03:00:50.654Z,3.39
2019-01-12T03:03:56.506Z,3.25
2019-01-12T03:07:02.087Z,2.91
2019-01-12T03:10:09.165Z,3.14
2019-01-12T03:13:14.828Z,2.82
2019-01-12T03:16:20.481Z,3.04
2019-01-12T03:19:26.251Z,2.88
2019-01-12T03:22:31.917Z,3.04
2019-01-12T03:25:37.589Z,3.16
2019-01-12T03:28:43.307Z,2.87
2019-01-12T03:31:48.938Z,3.04
2019-01-12T03:34:54.551Z,2.72
2019-01-12T03:38:00.138Z,2.75
2019-01-12T03:41:05.764Z,2.82
2019-01-12T03:44:11.384Z,3.04
2019-01-12T03:47:16.986Z,3.02
2019-01-12T03:50:22.620Z,2.88
2019-01-12T03:53:28.363Z,2.90
2019-01-12T03:56:34.044Z,2.85
2019-01-12T03:59:39.657Z,2.93
2019-01-12T04:02:45.491Z,3.01
2019-01-12T04:05:51.223Z,3.02
2019-01-12T04:08:56.847Z,2.90
2019-01-12T04:12:02.486Z,2.79
2019-01-12T04:15:09.141Z,2.86
2019-01-12T04:18:14.819Z,2.74
2019-01-12T04:21:20.451Z,2.75
2019-01-12T04:24:26.102Z,2.68
2019-01-12T04:27:31.817Z,2.81
2019-01-12T04:30:37.429Z,2.81
2019-01-12T04:33:43.029Z,2.94
2019-01-12T04:36:48.634Z,2.69
2019-01-12T04:39:54.286Z,2.46
2019-01-12T04:42:59.868Z,2.40
2019-01-12T04:46:05.716Z,2.65
2019-01-12T04:49:11.351Z,2.47
2019-01-12T04:52:17.040Z,2.50
2019-01-12T04:55:22.723Z,2.37
2019-01-12T04:58:28.359Z,2.02
2019-01-12T05:01:34.013Z,2.65
2019-01-12T05:04:39.648Z,2.52
2019-01-12T05:07:45.371Z,2.53
2019-01-12T05:10:51.130Z,2.44
2019-01-12T05:13:56.740Z,2.60
2019-01-12T05:17:02.521Z,2.68
2019-01-12T05:20:11.100Z,2.51
2019-01-12T05:23:16.739Z,2.80
2019-01-12T05:26:22.389Z,2.46
2019-01-12T05:29:28.030Z,2.51
2019-01-12T05:32:33.649Z,2.33
2019-01-12T05:35:39.325Z,2.47
2019-01-12T05:38:44.992Z,2.47
2019-01-12T05:41:50.655Z,2.49
2019-01-12T05:44:56.258Z,2.31
2019-01-12T05:48:01.889Z,2.35
2019-01-12T05:51:07.510Z,2.61
2019-01-12T05:54:13.099Z,2.59
2019-01-12T05:57:18.700Z,2.42
2019-01-12T06:00:24.538Z,2.46
2019-01-12T06:03:30.132Z,2.70
2019-01-12T06:06:35.751Z,2.16
2019-01-12T06:09:41.397Z,2.38
2019-01-12T06:12:47.186Z,1.85
2019-01-12T06:15:52.859Z,2.13
2019-01-12T06:18:58.484Z,2.30
2019-01-12T06:22:04.243Z,2.34
2019-01-12T06:25:09.977Z,1.76
2019-01-12T06:28:15.633Z,1.58
2019-01-12T06:31:21.240Z,1.91
2019-01-12T06:34:26.862Z,2.22
2019-01-12T06:37:32.524Z,1.89
2019-01-12T06:40:38.174Z,2.16
2019-01-12T06:43:43.858Z,2.23
2019-01-12T06:46:49.499Z,2.14
2019-01-12T06:49:55.130Z,2.39
2019-01-12T06:53:00.766Z,2.46
2019-01-12T06:56:10.808Z,2.85
2019-01-12T06:59:13.668Z,2.69
2019-01-12T07:02:19.283Z,2.60
2019-01-12T07:05:24.895Z,2.81
2019-01-12T07:08:30.524Z,2.90
2019-01-12T07:11:36.157Z,2.76
2019-01-12T07:14:41.746Z,2.18
2019-01-12T07:17:47.354Z,2.35
2019-01-12T07:20:53.399Z,2.27
2019-01-12T07:23:59.095Z,2.38
2019-01-12T07:27:04.822Z,2.21
2019-01-12T07:30:17.055Z,2.87
2019-01-12T07:33:22.808Z,3.24
2019-01-12T07:36:28.486Z,3.61
2019-01-12T07:39:34.117Z,3.85
2019-01-12T07:42:39.809Z,4.00
2019-01-12T07:45:45.439Z,3.80
2019-01-12T07:48:51.081Z,4.33
2019-01-12T07:51:56.673Z,4.37
2019-01-12T07:55:02.299Z,4.75
2019-01-12T07:58:07.955Z,5.29
2019-01-12T08:01:13.631Z,5.58
2019-01-12T08:04:19.315Z,5.01
2019-01-12T08:07:24.992Z,5.63
2019-01-12T08:10:30.647Z,5.72
2019-01-12T08:13:36.292Z,6.43
2019-01-12T08:16:41.895Z,6.48
2019-01-12T08:19:47.516Z,6.31
2019-01-12T08:22:53.747Z,6.28
2019-01-12T08:25:59.498Z,6.30
2019-01-12T08:29:06.268Z,6.73
2019-01-12T08:32:11.846Z,6.60
2019-01-12T08:35:17.843Z,6.78
2019-01-12T08:38:23.581Z,6.58
2019-01-12T08:41:29.206Z,6.68
2019-01-12T08:44:34.860Z,6.86
2019-01-12T08:47:40.494Z,6.90
2019-01-12T08:50:46.166Z,7.04
2019-01-12T08:53:51.858Z,6.79
2019-01-12T08:56:57.490Z,7.35
2019-01-12T09:00:03.264Z,7.49
2019-01-12T09:03:09.112Z,7.68
2019-01-12T09:06:14.769Z,7.80
2019-01-12T09:09:20.392Z,7.87
2019-01-12T09:12:26.038Z,8.05
2019-01-12T09:15:31.666Z,8.78
2019-01-12T09:18:37.274Z,8.56
2019-01-12T09:21:42.887Z,9.03
2019-01-12T09:24:48.464Z,8.37
2019-01-12T09:27:54.098Z,8.39
2019-01-12T09:30:59.852Z,8.83
2019-01-12T09:34:05.521Z,8.97
2019-01-12T09:37:11.184Z,8.32
2019-01-12T09:40:18.596Z,8.41
2019-01-12T09:43:24.238Z,8.62
2019-01-12T09:46:29.969Z,8.80
2019-01-12T09:49:35.611Z,8.49
2019-01-12T09:52:41.293Z,8.91
2019-01-12T09:55:47.006Z,9.31
2019-01-12T09:58:52.632Z,9.81
2019-01-12T10:01:58.248Z,9.61
2019-01-12T10:05:03.984Z,9.69
2019-01-12T10:08:09.648Z,9.43
2019-01-12T10:11:15.247Z,9.62
2019-01-12T10:14:20.838Z,9.58
2019-01-12T10:17:26.491Z,10.02
2019-01-12T10:20:32.095Z,9.74
2019-01-12T10:23:37.718Z,9.48
2019-01-12T10:26:43.331Z,9.71
2019-01-12T10:29:48.990Z,9.65
2019-01-12T10:32:54.936Z,9.95
2019-01-12T10:36:00.530Z,9.59
2019-01-12T10:39:21.882Z,10.04
2019-01-12T10:42:27.507Z,10.12
2019-01-12T10:45:34.495Z,10.27
2019-01-12T10:48:40.120Z,9.60
2019-01-12T10:51:56.885Z,10.30
2019-01-12T10:55:04.660Z,10.52
2019-01-12T10:58:11.517Z,10.10
2019-01-12T11:01:17.199Z,10.04
2019-01-12T11:04:22.962Z,10.30
2019-01-12T11:07:28.609Z,10.26
2019-01-12T11:10:34.346Z,9.76
2019-01-12T11:13:40.042Z,9.96
2019-01-12T11:16:45.627Z,10.36
2019-01-12T11:19:51.244Z,9.91
2019-01-12T11:22:56.943Z,9.95
2019-01-12T11:26:03.488Z,10.01
2019-01-12T11:29:09.161Z,10.10
2019-01-12T11:32:14.739Z,10.00
2019-01-12T11:35:20.446Z,10.05
2019-01-12T11:38:26.210Z,9.96
2019-01-12T11:41:32.363Z,9.78
2019-01-12T11:44:38.054Z,9.72
2019-01-12T11:47:46.929Z,9.51
2019-01-12T11:50:52.582Z,9.01
2019-01-12T11:53:59.519Z,9.29
2019-01-12T11:57:05.127Z,9.43
2019-01-12T12:00:22.380Z,9.44
2019-01-12T12:03:29.248Z,9.65
2019-01-12T12:06:34.935Z,9.46
2019-01-12T12:09:49.881Z,9.05
2019-01-12T12:12:55.563Z,9.63
2019-01-12T12:16:01.600Z,9.53
2019-01-12T12:19:07.357Z,9.18
2019-01-12T12:22:13.294Z,9.64
2019-01-12T12:25:19.157Z,9.31
2019-01-12T12:28:24.809Z,9.54
2019-01-12T12:31:30.518Z,9.74
2019-01-12T12:34:36.108Z,9.65
2019-01-12T12:37:41.812Z,9.48
2019-01-12T12:40:47.411Z,9.34
2019-01-12T12:43:53.015Z,8.99
2019-01-12T12:46:58.657Z,9.01
2019-01-12T12:50:05.104Z,8.88
2019-01-12T12:53:10.760Z,8.86
2019-01-12T12:56:16.458Z,8.74
2019-01-12T12:59:22.241Z,8.82
2019-01-12T13:02:28.036Z,8.67
2019-01-12T13:05:33.757Z,8.67
2019-01-12T13:08:39.501Z,8.71
2019-01-12T13:11:45.158Z,8.63
2019-01-12T13:14:50.780Z,8.86
2019-01-12T13:17:56.541Z,8.81
2019-01-12T13:21:02.143Z,8.65
2019-01-12T13:24:07.942Z,8.92
2019-01-12T13:27:13.635Z,8.78
2019-01-12T13:30:24.712Z,8.36
2019-01-12T13:33:30.452Z,8.20
2019-01-12T13:36:36.317Z,8.18
2019-01-12T13:39:41.931Z,7.68
2019-01-12T13:42:47.633Z,7.54
2019-01-12T13:45:53.213Z,7.73
2019-01-12T13:48:58.822Z,7.33
2019-01-12T13:52:04.555Z,7.30
2019-01-12T13:55:12.681Z,7.37
2019-01-12T13:58:18.305Z,6.97
2019-01-12T14:01:23.900Z,6.92
2019-01-12T14:04:29.493Z,7.04
2019-01-12T14:07:35.215Z,6.81
2019-01-12T14:10:41.055Z,6.88
2019-01-12T14:13:46.725Z,6.60
2019-01-12T14:16:52.411Z,6.30
2019-01-12T14:19:58.096Z,6.29
2019-01-12T14:23:03.864Z,6.13
2019-01-12T14:26:09.484Z,6.14
2019-01-12T14:29:15.111Z,6.29
2019-01-12T14:32:20.699Z,6.15
2019-01-12T14:35:26.291Z,5.82
2019-01-12T14:38:31.910Z,5.51
2019-01-12T14:41:37.634Z,5.36
2019-01-12T14:44:43.282Z,5.23
2019-01-12T14:47:49.046Z,5.29
2019-01-12T14:50:54.677Z,5.16
2019-01-12T14:54:00.274Z,5.23
2019-01-12T14:57:06.093Z,5.15
2019-01-12T15:00:15.536Z,5.17
2019-01-12T15:03:21.178Z,5.26
2019-01-12T15:06:26.990Z,5.33
2019-01-12T15:09:32.712Z,5.07
2019-01-12T15:12:38.412Z,4.83
2019-01-12T15:15:44.072Z,4.70
2019-01-12T15:18:49.737Z,4.85
2019-01-12T15:21:55.498Z,4.71
2019-01-12T15:25:01.127Z,4.59
2019-01-12T15:28:09.461Z,4.57
2019-01-12T15:31:14.076Z,4.76
2019-01-12T15:34:19.705Z,4.72
2019-01-12T15:37:25.303Z,4.62
2019-01-12T15:40:30.947Z,4.62
2019-01-12T15:43:37.577Z,4.57
2019-01-12T15:46:43.228Z,4.67
2019-01-12T15:49:49.019Z,4.52
2019-01-12T15:52:55.074Z,4.41
2019-01-12T15:56:00.693Z,4.22
2019-01-12T15:59:06.309Z,4.23
2019-01-12T16:02:12.117Z,4.24
2019-01-12T16:05:17.949Z,4.03
2019-01-12T16:08:23.580Z,4.04
2019-01-12T16:11:29.253Z,4.05
2019-01-12T16:14:34.965Z,3.69
2019-01-12T16:17:40.600Z,3.95
2019-01-12T16:20:46.311Z,3.88
2019-01-12T16:23:51.948Z,3.77
2019-01-12T16:26:57.665Z,4.00
2019-01-12T16:30:03.517Z,4.06
2019-01-12T16:33:09.465Z,3.89
2019-01-12T16:36:15.122Z,3.89
2019-01-12T16:39:20.709Z,3.46
2019-01-12T16:42:26.342Z,3.82
2019-01-12T16:45:31.974Z,3.54
2019-01-12T16:48:37.558Z,3.24
2019-01-12T16:51:43.144Z,3.54
2019-01-12T16:54:48.797Z,3.87
2019-01-12T16:57:54.393Z,3.92
2019-01-12T17:01:00.033Z,3.52
2019-01-12T17:04:05.903Z,3.35
2019-01-12T17:07:11.587Z,3.25
2019-01-12T17:10:18.696Z,3.21
2019-01-12T17:13:24.304Z,3.27
2019-01-12T17:16:29.951Z,3.21
2019-01-12T17:19:35.607Z,3.63
2019-01-12T17:22:41.307Z,3.28
2019-01-12T17:25:47.041Z,3.42
2019-01-12T17:28:52.693Z,3.54
2019-01-12T17:31:58.349Z,3.56
2019-01-12T17:35:04.140Z,3.63
2019-01-12T17:38:10.908Z,3.62
2019-01-12T17:41:16.581Z,3.71
2019-01-12T17:44:22.250Z,3.49
2019-01-12T17:47:27.875Z,3.17
2019-01-12T17:50:33.479Z,3.32
2019-01-12T17:53:39.076Z,3.24
2019-01-12T17:56:44.852Z,3.23
2019-01-12T17:59:50.471Z,3.16
2019-01-12T18:02:56.096Z,2.87
2019-01-12T18:06:01.824Z,3.20
2019-01-12T18:09:08.457Z,3.30
2019-01-12T18:12:14.288Z,3.37
2019-01-12T18:15:20.074Z,3.13
2019-01-12T18:18:25.742Z,3.05
2019-01-12T18:21:31.385Z,2.99
2019-01-12T18:24:37.019Z,3.24
2019-01-12T18:27:42.935Z,3.05
2019-01-12T18:30:48.699Z,3.13
2019-01-12T18:33:54.410Z,2.83
2019-01-12T18:37:00.031Z,3.28
2019-01-12T18:40:07.350Z,3.39
2019-01-12T18:43:13.009Z,3.16
2019-01-12T18:46:18.633Z,3.33
2019-01-12T18:49:24.374Z,3.18
2019-01-12T18:52:30.021Z,3.33
2019-01-12T18:55:35.659Z,3.25
2019-01-12T18:58:41.372Z,3.33
2019-01-12T19:01:47.057Z,3.11
2019-01-12T19:04:52.686Z,2.98
2019-01-12T19:07:58.302Z,3.09
2019-01-12T19:11:03.904Z,3.08
2019-01-12T19:14:09.770Z,3.09
2019-01-12T19:17:15.428Z,3.14
2019-01-12T19:20:21.012Z,2.58
2019-01-12T19:23:26.646Z,2.32
2019-01-12T19:26:32.280Z,2.49
2019-01-12T19:29:37.952Z,2.85
2019-01-12T19:32:43.726Z,2.92
2019-01-12T19:35:49.342Z,3.07
2019-01-12T19:38:54.997Z,3.08
2019-01-12T19:42:00.680Z,2.73
2019-01-12T19:45:07.922Z,2.80
2019-01-12T19:48:13.568Z,2.72
2019-01-12T19:51:19.295Z,2.70
2019-01-12T19:54:24.952Z,2.51
2019-01-12T19:57:30.583Z,2.76
2019-01-12T20:00:42.390Z,2.65
2019-01-12T20:03:48.109Z,2.92
2019-01-12T20:06:53.755Z,2.79
2019-01-12T20:09:59.402Z,2.72
2019-01-12T20:17:24.440Z,2.39
2019-01-12T20:21:01.318Z,2.71
2019-01-12T20:24:08.262Z,2.65
2019-01-12T20:27:14.010Z,2.68
2019-01-12T20:30:29.081Z,2.47
2019-01-12T20:33:42.311Z,2.50
2019-01-12T20:37:47.308Z,2.44
2019-01-12T20:41:23.399Z,2.43
2019-01-12T20:44:54.072Z,2.43
2019-01-12T20:48:34.083Z,2.62
2019-01-12T20:52:26.578Z,2.49
2019-01-12T20:56:19.054Z,2.42
2019-01-12T20:59:41.777Z,2.65
2019-01-12T21:03:24.961Z,2.68
2019-01-12T21:07:16.975Z,2.99
2019-01-12T21:11:06.556Z,2.70
2019-01-12T21:14:32.268Z,2.59
2019-01-12T21:17:38.026Z,2.79
2019-01-12T21:20:43.702Z,3.07
2019-01-12T21:23:49.418Z,3.02
2019-01-12T21:26:55.017Z,2.80
2019-01-12T21:30:00.653Z,2.78
2019-01-12T21:33:06.485Z,3.23
2019-01-12T21:36:12.191Z,2.90
2019-01-12T21:39:17.920Z,3.10
2019-01-12T21:42:23.546Z,3.16
2019-01-12T21:45:29.187Z,2.85
2019-01-12T21:48:34.813Z,2.82
2019-01-12T21:51:40.426Z,2.86
2019-01-12T21:54:46.032Z,3.09
2019-01-12T21:57:51.672Z,2.79
2019-01-12T22:00:57.423Z,2.83
2019-01-12T22:04:03.128Z,2.80
2019-01-12T22:07:08.760Z,2.89
2019-01-12T22:10:19.335Z,2.88
2019-01-12T22:13:22.874Z,2.79
2019-01-12T22:16:29.537Z,2.92
2019-01-12T22:19:35.163Z,2.71
2019-01-12T22:22:40.743Z,3.15
2019-01-12T22:25:46.363Z,3.13
2019-01-12T22:28:51.939Z,3.35
2019-01-12T22:31:57.540Z,3.04
2019-01-12T22:35:03.207Z,3.07
2019-01-12T22:38:08.847Z,2.96
2019-01-12T22:41:14.486Z,2.98
2019-01-12T22:44:20.149Z,3.10
2019-01-12T22:47:25.780Z,3.17
2019-01-12T22:50:31.432Z,2.93
2019-01-12T22:53:37.202Z,3.07
2019-01-12T22:56:42.794Z,2.75
2019-01-12T22:59:48.425Z,3.12
2019-01-12T23:02:54.386Z,2.85
2019-01-12T23:06:00.059Z,3.37
2019-01-12T23:09:11.157Z,3.35
2019-01-12T23:12:16.933Z,3.36
2019-01-12T23:15:22.625Z,2.94
2019-01-12T23:18:28.252Z,3.18
2019-01-12T23:21:35.082Z,3.04
2019-01-12T23:24:40.752Z,3.09
2019-01-12T23:27:46.375Z,3.25
2019-01-12T23:30:52.060Z,3.16
2019-01-12T23:33:57.708Z,3.05
2019-01-12T23:37:03.412Z,3.21
2019-01-12T23:40:09.557Z,3.20
2019-01-12T23:43:15.142Z,3.02
2019-01-12T23:46:20.781Z,3.08
2019-01-12T23:49:26.372Z,2.91
2019-01-12T23:52:31.987Z,2.89
2019-01-12T23:55:37.644Z,2.82
2019-01-12T23:58:43.406Z,2.68
